createdAt,value
2022-11-02T00:00:31.530Z,96.84
2022-11-02T00:01:23.596Z,96.74
2022-11-02T00:02:23.620Z,96.84
2022-11-02T00:03:23.556Z,96.95
2022-11-02T00:04:23.533Z,96.99
2022-11-02T00:05:23.534Z,97.09
2022-11-02T00:06:23.515Z,97.09
2022-11-02T00:07:23.503Z,97.09
2022-11-02T00:08:23.488Z,97.09
2022-11-02T00:09:23.462Z,97.09
2022-11-02T00:10:23.488Z,96.99
2022-11-02T00:11:23.451Z,96.99
2022-11-02T00:12:23.444Z,97.09
2022-11-02T00:13:23.435Z,97.09
2022-11-02T00:14:23.421Z,97.09
2022-11-02T00:15:23.430Z,96.89
2022-11-02T00:16:23.412Z,96.79
2022-11-02T00:17:23.388Z,96.89
2022-11-02T00:18:23.374Z,96.79
2022-11-02T00:19:23.398Z,96.89
2022-11-02T00:20:23.373Z,96.89
2022-11-02T00:21:23.341Z,96.99
2022-11-02T00:22:23.343Z,96.89
2022-11-02T00:23:23.320Z,96.99
2022-11-02T00:24:23.312Z,96.99
2022-11-02T00:25:23.313Z,97.09
2022-11-02T00:26:23.297Z,97.20
2022-11-02T00:27:23.297Z,97.20
2022-11-02T00:28:23.260Z,96.99
2022-11-02T00:29:23.250Z,96.89
2022-11-02T00:30:23.252Z,96.89
2022-11-02T00:31:23.220Z,96.79
2022-11-02T00:32:23.215Z,96.84
2022-11-02T00:33:23.203Z,96.84
2022-11-02T00:34:23.207Z,95.92
2022-11-02T00:35:23.206Z,96.23
2022-11-02T00:36:23.175Z,96.33
2022-11-02T00:37:23.210Z,96.44
2022-11-02T00:38:23.153Z,96.44
2022-11-02T00:39:23.134Z,96.54
2022-11-02T00:40:23.155Z,96.64
2022-11-02T00:41:23.111Z,96.74
2022-11-02T00:42:23.109Z,96.74
2022-11-02T00:43:23.095Z,96.84
2022-11-02T00:44:23.102Z,96.95
2022-11-02T00:45:23.084Z,96.95
2022-11-02T00:46:23.075Z,96.95
2022-11-02T00:47:23.048Z,96.95
2022-11-02T00:48:23.064Z,97.05
2022-11-02T00:49:23.019Z,97.05
2022-11-02T00:50:23.028Z,97.20
2022-11-02T00:51:23.024Z,96.84
2022-11-02T00:52:22.997Z,96.64
2022-11-02T00:53:22.978Z,96.64
2022-11-02T00:54:25.910Z,96.64
2022-11-02T00:55:22.990Z,96.64
2022-11-02T00:56:22.948Z,96.74
2022-11-02T00:57:22.931Z,96.84
2022-11-02T00:58:22.921Z,96.84
2022-11-02T00:59:22.914Z,96.95
2022-11-02T01:00:22.913Z,96.95
2022-11-02T01:01:23.049Z,96.95
2022-11-02T01:02:23.005Z,97.09
2022-11-02T01:03:22.858Z,97.09
2022-11-02T01:04:22.853Z,97.30
2022-11-02T01:05:22.862Z,97.30
2022-11-02T01:06:22.828Z,97.40
2022-11-02T01:07:22.816Z,97.30
2022-11-02T01:08:22.815Z,97.40
2022-11-02T01:09:22.787Z,97.40
2022-11-02T01:10:22.807Z,97.50
2022-11-02T01:11:22.776Z,97.50
2022-11-02T01:12:22.765Z,97.61
2022-11-02T01:13:22.754Z,97.50
2022-11-02T01:14:22.762Z,97.50
2022-11-02T01:15:22.750Z,97.50
2022-11-02T01:16:22.725Z,97.50
2022-11-02T01:17:22.716Z,97.50
2022-11-02T01:18:22.691Z,97.40
2022-11-02T01:19:22.706Z,97.40
2022-11-02T01:20:22.725Z,97.50
2022-11-02T01:21:22.660Z,97.61
2022-11-02T01:22:22.647Z,97.61
2022-11-02T01:23:22.628Z,97.71
2022-11-02T01:24:22.631Z,97.71
2022-11-02T01:25:22.631Z,97.61
2022-11-02T01:26:22.606Z,97.30
2022-11-02T01:27:22.597Z,97.30
2022-11-02T01:28:22.599Z,97.30
2022-11-02T01:29:22.580Z,96.33
2022-11-02T01:30:22.586Z,95.62
2022-11-02T01:31:22.567Z,95.72
2022-11-02T01:32:22.540Z,95.67
2022-11-02T01:33:22.529Z,95.78
2022-11-02T01:34:22.513Z,96.03
2022-11-02T01:35:22.521Z,96.13
2022-11-02T01:37:22.469Z,96.33
2022-11-02T01:38:22.463Z,96.44
2022-11-02T01:39:22.479Z,96.54
2022-11-02T01:40:22.462Z,96.74
2022-11-02T01:41:22.432Z,96.95
2022-11-02T01:42:22.420Z,97.20
2022-11-02T01:43:22.411Z,97.15
2022-11-02T01:44:22.397Z,97.30
2022-11-02T01:45:22.406Z,97.40
2022-11-02T01:46:22.380Z,97.50
2022-11-02T01:47:22.362Z,97.61
2022-11-02T01:48:22.359Z,97.50
2022-11-02T01:49:22.339Z,97.50
2022-11-02T01:50:22.347Z,97.50
2022-11-02T01:51:22.311Z,97.61
2022-11-02T01:52:22.308Z,97.50
2022-11-02T01:53:22.297Z,97.50
2022-11-02T01:54:22.281Z,97.61
2022-11-02T01:55:22.283Z,97.61
2022-11-02T01:57:22.243Z,97.50
2022-11-02T01:58:22.239Z,97.40
2022-11-02T01:59:22.232Z,97.40
2022-11-02T02:00:22.240Z,97.36
2022-11-02T02:02:18.877Z,97.36
2022-11-02T02:03:19.676Z,97.36
2022-11-02T02:04:19.664Z,97.56
2022-11-02T02:05:19.673Z,97.56
2022-11-02T02:06:19.648Z,97.56
2022-11-02T02:07:19.634Z,97.56
2022-11-02T02:08:19.616Z,97.56
2022-11-02T02:09:19.623Z,97.46
2022-11-02T02:10:19.595Z,97.46
2022-11-02T02:11:19.598Z,97.56
2022-11-02T02:12:19.579Z,97.66
2022-11-02T02:13:19.578Z,97.66
2022-11-02T02:14:19.557Z,97.66
2022-11-02T02:15:19.542Z,97.66
2022-11-02T02:16:19.554Z,97.66
2022-11-02T02:17:19.517Z,97.62
2022-11-02T02:18:19.514Z,97.72
2022-11-02T02:19:19.507Z,97.62
2022-11-02T02:20:19.490Z,97.41
2022-11-02T02:21:19.493Z,97.31
2022-11-02T02:22:19.470Z,97.41
2022-11-02T02:23:19.474Z,97.41
2022-11-02T02:24:19.445Z,97.52
2022-11-02T02:25:19.450Z,97.62
2022-11-02T02:26:19.440Z,97.52
2022-11-02T02:27:19.439Z,97.52
2022-11-02T02:28:19.396Z,97.57
2022-11-02T02:29:19.403Z,97.67
2022-11-02T02:30:19.377Z,96.45
2022-11-02T02:31:19.413Z,96.55
2022-11-02T02:32:19.353Z,96.81
2022-11-02T02:33:19.355Z,96.92
2022-11-02T02:34:19.332Z,96.92
2022-11-02T02:35:19.324Z,96.92
2022-11-02T02:36:19.330Z,97.22
2022-11-02T02:37:19.294Z,97.63
2022-11-02T02:38:19.286Z,97.53
2022-11-02T02:39:19.296Z,97.33
2022-11-02T02:40:19.261Z,97.42
2022-11-02T02:41:19.277Z,97.63
2022-11-02T02:42:19.244Z,97.83
2022-11-02T02:43:19.238Z,98.04
2022-11-02T02:44:19.247Z,98.14
2022-11-02T02:45:19.217Z,98.04
2022-11-02T02:46:19.221Z,97.83
2022-11-02T02:47:19.188Z,97.83
2022-11-02T02:48:19.224Z,97.42
2022-11-02T02:49:19.168Z,97.63
2022-11-02T02:50:19.163Z,97.74
2022-11-02T02:51:19.152Z,97.83
2022-11-02T02:52:19.156Z,97.83
2022-11-02T02:53:19.127Z,97.63
2022-11-02T02:54:19.119Z,97.63
2022-11-02T02:55:19.140Z,97.83
2022-11-02T02:56:19.105Z,98.14
2022-11-02T02:57:19.093Z,98.14
2022-11-02T02:58:19.067Z,98.14
2022-11-02T02:59:19.066Z,98.24
2022-11-02T03:00:19.041Z,98.14
2022-11-02T03:01:19.242Z,98.14
2022-11-02T03:02:19.133Z,98.24
2022-11-02T03:03:19.005Z,98.35
2022-11-02T03:04:19.023Z,98.45
2022-11-02T03:05:19.004Z,98.55
2022-11-02T03:06:19.012Z,98.55
2022-11-02T03:07:18.972Z,98.65
2022-11-02T03:08:18.958Z,98.55
2022-11-02T03:09:18.956Z,98.45
2022-11-02T03:10:18.946Z,98.45
2022-11-02T03:11:18.938Z,98.14
2022-11-02T03:12:18.925Z,97.94
2022-11-02T03:13:18.899Z,97.74
2022-11-02T03:14:18.893Z,97.63
2022-11-02T03:15:18.870Z,97.63
2022-11-02T03:16:18.935Z,97.63
2022-11-02T03:17:18.851Z,97.58
2022-11-02T03:18:18.843Z,97.49
2022-11-02T03:19:18.837Z,97.58
2022-11-02T03:20:18.821Z,97.58
2022-11-02T03:21:18.830Z,97.58
2022-11-02T03:22:18.802Z,97.49
2022-11-02T03:23:18.800Z,97.58
2022-11-02T03:24:18.785Z,97.38
2022-11-02T03:25:18.767Z,97.28
2022-11-02T03:26:18.773Z,97.38
2022-11-02T03:27:18.779Z,97.38
2022-11-02T03:28:18.729Z,97.38
2022-11-02T03:29:18.720Z,96.67
2022-11-02T03:30:18.711Z,96.67
2022-11-02T03:31:18.714Z,96.87
2022-11-02T03:32:18.702Z,97.17
2022-11-02T03:33:18.674Z,97.08
2022-11-02T03:34:18.691Z,96.87
2022-11-02T03:35:18.661Z,96.26
2022-11-02T03:36:18.662Z,96.56
2022-11-02T03:37:18.646Z,96.77
2022-11-02T03:38:18.642Z,96.97
2022-11-02T03:39:18.617Z,97.17
2022-11-02T03:40:18.599Z,97.17
2022-11-02T03:41:18.608Z,97.08
2022-11-02T03:42:18.578Z,97.08
2022-11-02T03:43:18.562Z,97.08
2022-11-02T03:44:18.559Z,96.97
2022-11-02T03:45:18.547Z,97.08
2022-11-02T03:46:18.557Z,96.97
2022-11-02T03:47:18.528Z,96.97
2022-11-02T03:48:18.528Z,96.87
2022-11-02T03:49:18.489Z,96.87
2022-11-02T03:50:18.507Z,96.87
2022-11-02T03:51:18.500Z,96.67
2022-11-02T03:52:18.500Z,96.36
2022-11-02T03:53:18.453Z,96.56
2022-11-02T03:54:18.448Z,96.56
2022-11-02T03:55:18.434Z,96.46
2022-11-02T03:56:18.450Z,96.15
2022-11-02T03:57:18.430Z,95.39
2022-11-02T03:58:18.399Z,95.50
2022-11-02T03:59:18.385Z,95.70
2022-11-02T04:00:18.407Z,95.70
2022-11-02T04:01:18.447Z,96.01
2022-11-02T04:02:18.503Z,95.90
2022-11-02T04:03:18.349Z,95.70
2022-11-02T04:04:18.350Z,96.01
2022-11-02T04:05:18.325Z,96.11
2022-11-02T04:06:18.336Z,96.36
2022-11-02T04:07:18.308Z,96.26
2022-11-02T04:08:18.317Z,96.46
2022-11-02T04:09:18.277Z,96.67
2022-11-02T04:10:18.274Z,96.87
2022-11-02T04:11:18.295Z,96.87
2022-11-02T04:12:18.799Z,96.97
2022-11-02T04:13:18.224Z,96.97
2022-11-02T04:14:18.228Z,97.12
2022-11-02T04:15:18.203Z,97.22
2022-11-02T04:16:20.308Z,97.22
2022-11-02T04:17:18.244Z,96.61
2022-11-02T04:18:18.177Z,96.46
2022-11-02T04:19:18.190Z,96.36
2022-11-02T04:20:18.160Z,96.56
2022-11-02T04:21:18.176Z,96.56
2022-11-02T04:22:18.136Z,96.67
2022-11-02T04:23:18.118Z,96.97
2022-11-02T04:24:18.116Z,97.17
2022-11-02T04:25:18.104Z,97.42
2022-11-02T04:26:18.102Z,97.42
2022-11-02T04:27:20.917Z,97.63
2022-11-02T04:28:18.071Z,97.74
2022-11-02T04:29:18.059Z,98.04
2022-11-02T04:30:18.048Z,98.04
2022-11-02T04:31:18.061Z,98.04
2022-11-02T04:32:18.021Z,98.04
2022-11-02T04:33:18.007Z,98.14
2022-11-02T04:34:17.997Z,98.14
2022-11-02T04:35:17.985Z,98.04
2022-11-02T04:36:18.026Z,98.04
2022-11-02T04:37:17.996Z,98.04
2022-11-02T04:38:17.955Z,98.04
2022-11-02T04:39:17.976Z,97.94
2022-11-02T04:40:17.939Z,97.94
2022-11-02T04:41:17.940Z,97.74
2022-11-02T04:42:17.916Z,97.74
2022-11-02T04:43:17.910Z,97.63
2022-11-02T04:44:17.898Z,97.42
2022-11-02T04:45:17.871Z,96.81
2022-11-02T04:46:17.901Z,96.56
2022-11-02T04:47:17.858Z,96.56
2022-11-02T04:48:17.841Z,96.77
2022-11-02T04:49:17.826Z,96.87
2022-11-02T04:50:17.883Z,96.87
2022-11-02T04:51:17.817Z,96.77
2022-11-02T04:52:17.814Z,96.77
2022-11-02T04:53:17.825Z,96.87
2022-11-02T04:54:17.792Z,96.87
2022-11-02T04:55:17.775Z,96.87
2022-11-02T04:56:17.750Z,96.97
2022-11-02T04:57:17.762Z,97.17
2022-11-02T04:58:17.734Z,97.28
2022-11-02T04:59:17.726Z,97.38
2022-11-02T05:00:17.707Z,97.58
2022-11-02T05:01:17.844Z,97.58
2022-11-02T05:02:17.823Z,97.58
2022-11-02T05:03:17.676Z,97.58
2022-11-02T05:04:17.665Z,97.49
2022-11-02T05:05:17.686Z,96.05
2022-11-02T05:06:17.645Z,96.11
2022-11-02T05:07:17.637Z,96.31
2022-11-02T05:08:17.621Z,96.11
2022-11-02T05:09:17.603Z,96.31
2022-11-02T05:10:17.601Z,96.51
2022-11-02T05:11:17.591Z,96.62
2022-11-02T05:12:17.628Z,96.92
2022-11-02T05:13:17.558Z,96.42
2022-11-02T05:14:17.555Z,96.72
2022-11-02T05:15:17.555Z,96.83
2022-11-02T05:16:17.542Z,96.83
2022-11-02T05:17:17.536Z,96.92
2022-11-02T05:18:19.129Z,97.03
2022-11-02T05:19:17.539Z,97.24
2022-11-02T05:20:17.509Z,97.44
2022-11-02T05:21:17.468Z,97.44
2022-11-02T05:22:17.518Z,97.64
2022-11-02T05:23:17.450Z,97.64
2022-11-02T05:24:17.436Z,97.74
2022-11-02T05:25:17.431Z,97.85
2022-11-02T05:26:17.445Z,97.95
2022-11-02T05:27:17.415Z,97.95
2022-11-02T05:28:17.417Z,97.95
2022-11-02T05:29:17.394Z,97.95
2022-11-02T05:30:17.366Z,97.95
2022-11-02T05:31:17.371Z,97.74
2022-11-02T05:32:17.407Z,97.64
2022-11-02T05:33:17.349Z,97.64
2022-11-02T05:34:17.333Z,97.54
2022-11-02T05:35:17.325Z,97.38
2022-11-02T05:36:17.304Z,97.38
2022-11-02T05:37:17.325Z,97.49
2022-11-02T05:38:17.313Z,97.38
2022-11-02T05:39:17.274Z,97.38
2022-11-02T05:40:17.274Z,97.49
2022-11-02T05:41:17.275Z,97.49
2022-11-02T05:42:17.252Z,97.63
2022-11-02T05:43:17.280Z,97.74
2022-11-02T05:44:17.228Z,97.74
2022-11-02T05:45:20.609Z,97.83
2022-11-02T05:46:17.202Z,97.83
2022-11-02T05:47:17.198Z,97.94
2022-11-02T05:48:17.172Z,97.88
2022-11-02T05:49:17.171Z,97.53
2022-11-02T05:50:17.177Z,97.53
2022-11-02T05:51:17.141Z,97.42
2022-11-02T05:52:17.150Z,97.33
2022-11-02T05:53:17.150Z,97.53
2022-11-02T05:54:17.109Z,97.67
2022-11-02T05:55:17.094Z,97.88
2022-11-02T05:56:22.098Z,97.98
2022-11-02T05:57:17.099Z,98.08
2022-11-02T05:58:17.128Z,98.08
2022-11-02T05:59:17.057Z,98.29
2022-11-02T06:00:17.073Z,98.49
2022-11-02T06:01:17.042Z,98.39
2022-11-02T06:02:17.032Z,98.39
2022-11-02T06:03:17.030Z,98.49
2022-11-02T06:04:17.019Z,98.45
2022-11-02T06:05:17.251Z,98.49
2022-11-02T06:06:16.979Z,98.60
2022-11-02T06:07:16.984Z,98.55
2022-11-02T06:08:16.961Z,98.86
2022-11-02T06:09:16.945Z,98.96
2022-11-02T06:10:16.931Z,99.06
2022-11-02T06:11:16.921Z,98.81
2022-11-02T06:12:16.916Z,98.71
2022-11-02T06:13:16.895Z,98.50
2022-11-02T06:14:16.883Z,98.40
2022-11-02T06:15:16.888Z,98.50
2022-11-02T06:16:21.651Z,97.85
2022-11-02T06:17:16.868Z,97.85
2022-11-02T06:18:16.846Z,97.44
2022-11-02T06:19:16.830Z,97.64
2022-11-02T06:20:16.830Z,97.74
2022-11-02T06:21:16.806Z,97.74
2022-11-02T06:22:16.816Z,97.85
2022-11-02T06:23:16.794Z,97.95
2022-11-02T06:24:16.789Z,97.74
2022-11-02T06:25:16.768Z,97.85
2022-11-02T06:26:16.754Z,97.89
2022-11-02T06:27:16.779Z,97.99
2022-11-02T06:28:16.725Z,97.99
2022-11-02T06:29:16.732Z,97.99
2022-11-02T06:30:16.723Z,98.10
2022-11-02T06:31:16.687Z,98.20
2022-11-02T06:32:16.696Z,98.35
2022-11-02T06:33:16.671Z,98.55
2022-11-02T06:34:16.657Z,98.75
2022-11-02T06:35:16.651Z,98.86
2022-11-02T06:36:16.635Z,99.06
2022-11-02T06:37:16.640Z,99.06
2022-11-02T06:38:16.615Z,99.16
2022-11-02T06:39:16.601Z,99.16
2022-11-02T06:40:17.121Z,99.27
2022-11-02T06:41:16.594Z,99.27
2022-11-02T06:42:16.577Z,99.27
2022-11-02T06:43:17.588Z,99.37
2022-11-02T06:44:16.590Z,99.37
2022-11-02T06:45:16.531Z,99.47
2022-11-02T06:46:16.524Z,99.57
2022-11-02T06:47:16.544Z,99.68
2022-11-02T06:48:16.505Z,99.68
2022-11-02T06:49:16.498Z,99.88
2022-11-02T06:50:16.480Z,99.88
2022-11-02T06:51:16.476Z,99.98
2022-11-02T06:52:16.478Z,99.88
2022-11-02T06:53:16.441Z,99.98
2022-11-02T06:54:16.464Z,99.99
2022-11-02T06:55:16.432Z,99.99
2022-11-02T06:56:16.412Z,99.99
2022-11-02T06:57:16.418Z,99.99
2022-11-02T06:58:16.383Z,99.99
2022-11-02T06:59:16.407Z,99.99
2022-11-02T07:00:19.315Z,99.99
2022-11-02T07:01:16.506Z,99.16
2022-11-02T07:02:16.487Z,98.40
2022-11-02T07:03:16.325Z,97.89
2022-11-02T07:04:16.325Z,97.79
2022-11-02T07:05:16.335Z,97.79
2022-11-02T07:06:16.347Z,97.79
2022-11-02T07:07:16.310Z,97.89
2022-11-02T07:08:16.299Z,98.04
2022-11-02T07:09:16.276Z,98.14
2022-11-02T07:10:16.257Z,98.24
2022-11-02T07:11:16.303Z,98.24
2022-11-02T07:12:19.260Z,98.35
2022-11-02T07:13:16.224Z,98.45
2022-11-02T07:14:16.219Z,98.65
2022-11-02T07:15:16.194Z,98.70
2022-11-02T07:16:16.183Z,98.70
2022-11-02T07:17:16.200Z,98.70
2022-11-02T07:18:16.162Z,98.75
2022-11-02T07:19:16.144Z,98.75
2022-11-02T07:20:16.145Z,98.75
2022-11-02T07:21:16.248Z,98.86
2022-11-02T07:22:16.175Z,99.06
2022-11-02T07:23:16.111Z,99.16
2022-11-02T07:24:16.243Z,99.16
2022-11-02T07:25:16.089Z,99.16
2022-11-02T07:26:16.109Z,98.96
2022-11-02T07:27:16.067Z,98.96
2022-11-02T07:28:16.051Z,98.96
2022-11-02T07:29:16.076Z,99.06
2022-11-02T07:30:16.058Z,99.02
2022-11-02T07:31:16.021Z,99.02
2022-11-02T07:32:16.043Z,98.91
2022-11-02T07:33:15.990Z,98.91
2022-11-02T07:34:17.291Z,98.91
2022-11-02T07:35:15.980Z,98.91
2022-11-02T07:36:15.979Z,99.02
2022-11-02T07:37:15.962Z,99.02
2022-11-02T07:38:15.967Z,99.02
2022-11-02T07:39:15.918Z,99.02
2022-11-02T07:40:15.913Z,99.11
2022-11-02T07:41:15.930Z,98.61
2022-11-02T07:42:15.924Z,97.89
2022-11-02T07:43:15.881Z,97.79
2022-11-02T07:44:15.887Z,97.85
2022-11-02T07:45:15.857Z,97.89
2022-11-02T07:46:15.856Z,97.89
2022-11-02T07:47:15.850Z,97.99
2022-11-02T07:48:15.853Z,97.99
2022-11-02T07:49:21.088Z,98.10
2022-11-02T07:50:15.816Z,98.10
2022-11-02T07:51:15.817Z,98.10
2022-11-02T07:52:15.796Z,97.38
2022-11-02T07:53:15.781Z,96.83
2022-11-02T07:54:15.763Z,96.51
2022-11-02T07:55:15.739Z,96.51
2022-11-02T07:56:15.743Z,95.76
2022-11-02T07:57:15.750Z,95.86
2022-11-02T07:58:15.711Z,96.17
2022-11-02T07:59:15.714Z,96.27
2022-11-02T08:00:15.702Z,96.47
2022-11-02T08:01:15.735Z,96.47
2022-11-02T08:02:23.524Z,96.37
2022-11-02T08:03:15.750Z,95.86
2022-11-02T08:04:15.705Z,95.31
2022-11-02T08:05:15.645Z,95.61
2022-11-02T08:06:15.634Z,95.92
2022-11-02T08:07:15.639Z,96.12
2022-11-02T08:08:15.612Z,95.41
2022-11-02T08:09:15.623Z,95.41
2022-11-02T08:10:15.596Z,94.18
2022-11-02T08:11:15.606Z,94.34
2022-11-02T08:12:16.384Z,94.24
2022-11-02T08:13:15.600Z,94.04
2022-11-02T08:14:15.557Z,93.43
2022-11-02T08:15:15.567Z,93.63
2022-11-02T08:16:15.548Z,93.43
2022-11-02T08:17:15.532Z,92.41
2022-11-02T08:18:15.516Z,93.12
2022-11-02T08:19:15.486Z,92.41
2022-11-02T08:20:15.487Z,92.87
2022-11-02T08:21:15.461Z,93.12
2022-11-02T08:22:15.488Z,93.32
2022-11-02T08:23:15.475Z,93.63
2022-11-02T08:24:15.455Z,93.84
2022-11-02T08:26:15.451Z,92.46
2022-11-02T08:27:15.436Z,92.26
2022-11-02T08:28:15.452Z,92.46
2022-11-02T08:29:15.395Z,93.18
2022-11-02T08:30:15.377Z,92.67
2022-11-02T08:31:15.452Z,92.87
2022-11-02T08:32:15.366Z,93.79
2022-11-02T08:33:15.396Z,93.89
2022-11-02T08:34:15.337Z,93.18
2022-11-02T08:35:15.326Z,92.97
2022-11-02T08:36:15.317Z,92.36
2022-11-02T08:37:15.310Z,92.67
2022-11-02T08:38:28.199Z,92.11
2022-11-02T08:39:18.943Z,91.50
2022-11-02T08:40:15.267Z,91.81
2022-11-02T08:41:15.275Z,92.11
2022-11-02T08:42:15.285Z,91.16
2022-11-02T08:43:15.227Z,91.26
2022-11-02T08:44:15.214Z,90.34
2022-11-02T08:45:15.201Z,91.26
2022-11-02T08:46:16.865Z,91.46
2022-11-02T08:47:15.180Z,91.66
2022-11-02T08:48:15.203Z,91.66
2022-11-02T08:49:15.163Z,92.07
2022-11-02T08:50:15.160Z,91.36
2022-11-02T08:51:15.176Z,91.26
2022-11-02T08:52:15.131Z,91.66
2022-11-02T08:53:15.133Z,91.66
2022-11-02T08:54:15.113Z,91.05
2022-11-02T08:55:15.123Z,89.79
2022-11-02T08:56:15.091Z,89.69
2022-11-02T08:57:15.069Z,90.50
2022-11-02T08:58:15.079Z,90.50
2022-11-02T08:59:15.070Z,89.18
2022-11-02T09:00:15.049Z,89.54
2022-11-02T09:01:15.063Z,90.25
2022-11-02T09:02:15.148Z,89.85
2022-11-02T09:03:15.025Z,89.24
2022-11-02T09:04:14.996Z,88.93
2022-11-02T09:05:14.986Z,87.71
2022-11-02T09:06:14.976Z,87.71
2022-11-02T09:07:14.971Z,88.69
2022-11-02T09:08:15.030Z,89.20
2022-11-02T09:09:14.936Z,88.93
2022-11-02T09:10:14.939Z,88.12
2022-11-02T09:11:14.924Z,88.73
2022-11-02T09:12:14.932Z,88.42
2022-11-02T09:13:14.924Z,87.92
2022-11-02T09:14:14.919Z,87.92
2022-11-02T09:15:14.876Z,88.42
2022-11-02T09:16:14.875Z,87.41
2022-11-02T09:17:14.855Z,88.18
2022-11-02T09:18:14.861Z,87.98
2022-11-02T09:19:14.850Z,88.59
2022-11-02T09:20:14.830Z,89.00
2022-11-02T09:21:14.808Z,87.98
2022-11-02T09:22:14.831Z,88.48
2022-11-02T09:23:14.808Z,88.08
2022-11-02T09:24:14.786Z,88.79
2022-11-02T09:25:14.815Z,87.37
2022-11-02T09:26:14.772Z,88.39
2022-11-02T09:27:14.758Z,87.77
2022-11-02T09:28:14.804Z,88.28
2022-11-02T09:29:14.795Z,88.79
2022-11-02T09:30:14.727Z,88.59
2022-11-02T09:31:14.717Z,88.89
2022-11-02T09:32:14.702Z,89.20
2022-11-02T09:33:14.726Z,89.50
2022-11-02T09:34:14.676Z,89.70
2022-11-02T09:35:14.671Z,90.11
2022-11-02T09:36:14.692Z,88.48
2022-11-02T09:37:14.673Z,88.08
2022-11-02T09:38:14.668Z,88.89
2022-11-02T09:39:14.637Z,87.87
2022-11-02T09:40:14.619Z,88.59
2022-11-02T09:41:14.599Z,87.98
2022-11-02T09:42:14.584Z,87.37
2022-11-02T09:43:14.668Z,88.59
2022-11-02T09:44:14.605Z,88.79
2022-11-02T09:45:14.558Z,89.15
2022-11-02T09:46:14.540Z,85.60
2022-11-02T09:48:17.947Z,87.53
2022-11-02T09:49:14.513Z,87.84
2022-11-02T09:50:14.585Z,87.63
2022-11-02T09:51:14.489Z,86.31
2022-11-02T09:52:14.493Z,86.51
2022-11-02T09:53:14.472Z,86.31
2022-11-02T09:54:17.468Z,86.31
2022-11-02T09:55:14.469Z,87.23
2022-11-02T09:56:14.445Z,85.80
2022-11-02T09:57:14.492Z,85.70
2022-11-02T09:58:14.432Z,86.21
2022-11-02T09:59:14.392Z,85.90
2022-11-02T10:00:14.411Z,87.02
2022-11-02T10:01:14.416Z,88.95
2022-11-02T10:02:14.374Z,89.15
2022-11-02T10:03:14.378Z,88.39
2022-11-02T10:04:14.363Z,89.09
2022-11-02T10:05:14.405Z,89.81
2022-11-02T10:06:14.324Z,90.01
2022-11-02T10:07:14.329Z,89.75
2022-11-02T10:08:14.353Z,90.16
2022-11-02T10:09:14.287Z,91.07
2022-11-02T10:10:14.356Z,92.70
2022-11-02T10:11:14.257Z,93.25
2022-11-02T10:12:14.270Z,92.94
2022-11-02T10:13:14.290Z,93.55
2022-11-02T10:14:14.245Z,94.27
2022-11-02T10:15:14.211Z,93.90
2022-11-02T10:16:14.206Z,95.13
2022-11-02T10:17:14.233Z,95.64
2022-11-02T10:18:14.204Z,95.94
2022-11-02T10:19:14.198Z,96.15
2022-11-02T10:20:14.179Z,96.45
2022-11-02T10:21:14.143Z,95.64
2022-11-02T10:22:14.149Z,95.53
2022-11-02T10:23:14.152Z,96.35
2022-11-02T10:24:14.116Z,95.43
2022-11-02T10:25:14.130Z,95.53
2022-11-02T10:26:14.095Z,96.25
2022-11-02T10:27:14.482Z,96.66
2022-11-02T10:28:14.145Z,96.76
2022-11-02T10:29:14.077Z,97.06
2022-11-02T10:30:14.060Z,96.30
2022-11-02T10:31:15.672Z,96.60
2022-11-02T10:32:14.048Z,97.00
2022-11-02T10:33:14.052Z,97.00
2022-11-02T10:34:14.022Z,96.91
2022-11-02T10:36:18.402Z,96.95
2022-11-02T10:37:13.972Z,96.54
2022-11-02T10:38:15.491Z,96.75
2022-11-02T10:39:13.968Z,96.64
2022-11-02T10:40:13.947Z,96.44
2022-11-02T10:41:13.929Z,95.93
2022-11-02T10:42:13.915Z,95.42
2022-11-02T10:43:13.960Z,94.09
2022-11-02T10:44:13.912Z,94.50
2022-11-02T10:45:13.892Z,95.48
2022-11-02T10:46:13.874Z,94.56
2022-11-02T10:47:13.873Z,94.56
2022-11-02T10:48:13.879Z,94.46
2022-11-02T10:49:13.849Z,94.46
2022-11-02T10:50:13.843Z,94.87
2022-11-02T10:51:13.825Z,94.46
2022-11-02T10:52:13.933Z,94.97
2022-11-02T10:53:39.510Z,93.70
2022-11-02T10:54:15.124Z,93.29
2022-11-02T10:55:13.787Z,94.31
2022-11-02T10:56:13.780Z,93.70
2022-11-02T10:57:13.776Z,94.11
2022-11-02T10:58:13.795Z,93.60
2022-11-02T10:59:13.742Z,93.90
2022-11-02T11:00:13.841Z,94.52
2022-11-02T11:01:13.831Z,94.72
2022-11-02T11:02:13.838Z,92.44
2022-11-02T11:03:13.711Z,92.64
2022-11-02T11:04:13.691Z,92.94
2022-11-02T11:05:13.668Z,92.33
2022-11-02T11:06:13.653Z,91.42
2022-11-02T11:07:13.645Z,91.58
2022-11-02T11:08:13.651Z,90.77
2022-11-02T11:09:13.615Z,92.60
2022-11-02T11:10:13.616Z,91.88
2022-11-02T11:11:13.605Z,91.48
2022-11-02T11:12:13.592Z,92.09
2022-11-02T11:15:48.434Z,92.90
2022-11-02T11:15:53.579Z,92.49
2022-11-02T11:16:54.234Z,91.99
2022-11-02T11:19:53.540Z,91.74
2022-11-02T11:20:53.508Z,91.64
2022-11-02T11:21:53.490Z,91.33
2022-11-02T11:22:53.521Z,91.33
2022-11-02T11:23:53.463Z,90.31
2022-11-02T11:24:53.457Z,88.59
2022-11-02T11:25:53.451Z,89.66
2022-11-02T11:26:56.615Z,89.05
2022-11-02T11:27:53.445Z,87.23
2022-11-02T11:28:53.442Z,86.31
2022-11-02T11:29:53.398Z,89.15
2022-11-02T11:31:00.028Z,89.31
2022-11-02T11:31:53.397Z,89.22
2022-11-02T11:32:53.394Z,88.60
2022-11-02T11:33:53.364Z,88.40
2022-11-02T11:34:53.354Z,88.10
2022-11-02T11:35:53.342Z,86.16
2022-11-02T11:36:53.328Z,85.76
2022-11-02T11:37:53.341Z,86.47
2022-11-02T11:38:53.310Z,87.04
2022-11-02T11:39:54.880Z,87.34
2022-11-02T11:40:53.288Z,87.55
2022-11-02T11:41:53.272Z,87.45
2022-11-02T11:42:54.698Z,87.65
2022-11-02T11:43:53.259Z,87.55
2022-11-02T11:44:53.245Z,86.57
2022-11-02T11:45:53.238Z,87.29
2022-11-02T11:46:53.219Z,87.99
2022-11-02T11:47:53.220Z,88.50
2022-11-02T11:48:53.201Z,86.57
2022-11-02T11:50:09.351Z,86.88
2022-11-02T11:50:53.179Z,87.02
2022-11-02T11:51:53.166Z,87.02
2022-11-02T11:52:53.167Z,87.23
2022-11-02T11:53:53.142Z,87.63
2022-11-02T11:54:53.134Z,87.63
2022-11-02T11:55:53.114Z,88.44
2022-11-02T11:56:53.115Z,87.32
2022-11-02T11:57:53.129Z,88.65
2022-11-02T11:58:53.087Z,88.85
2022-11-02T11:59:53.142Z,89.46
2022-11-02T12:00:53.060Z,90.78
2022-11-02T12:01:53.159Z,91.90
2022-11-02T12:02:53.108Z,90.88
2022-11-02T12:03:53.036Z,89.15
2022-11-02T12:04:53.026Z,89.30
2022-11-02T12:05:53.031Z,90.31
2022-11-02T12:06:53.017Z,90.83
2022-11-02T12:07:55.994Z,89.61
2022-11-02T12:08:52.983Z,89.30
2022-11-02T12:09:53.059Z,89.40
2022-11-02T12:10:52.961Z,89.91
2022-11-02T12:11:52.962Z,90.01
2022-11-02T12:12:52.939Z,90.22
2022-11-02T12:13:52.936Z,90.83
2022-11-02T12:14:52.950Z,91.53
2022-11-02T12:15:52.905Z,92.40
2022-11-02T12:16:53.057Z,92.49
2022-11-02T12:17:52.889Z,92.60
2022-11-02T12:18:52.953Z,92.60
2022-11-02T12:19:52.871Z,92.80
2022-11-02T12:20:52.856Z,93.21
2022-11-02T12:21:52.827Z,93.45
2022-11-02T12:22:52.821Z,93.66
2022-11-02T12:23:52.818Z,93.86
2022-11-02T12:24:52.803Z,94.07
2022-11-02T12:25:52.794Z,93.90
2022-11-02T12:26:52.782Z,94.01
2022-11-02T12:27:52.762Z,94.01
2022-11-02T12:28:52.799Z,94.21
2022-11-02T12:29:52.748Z,94.52
2022-11-02T12:30:52.760Z,95.07
2022-11-02T12:31:56.734Z,95.07
2022-11-02T12:32:52.715Z,95.28
2022-11-02T12:33:52.717Z,95.48
2022-11-02T12:35:02.919Z,95.68
2022-11-02T12:35:52.676Z,95.68
2022-11-02T12:37:26.522Z,96.09
2022-11-02T12:37:52.666Z,95.17
2022-11-02T12:38:52.661Z,95.07
2022-11-02T12:39:52.629Z,95.37
2022-11-02T12:40:52.623Z,95.58
2022-11-02T12:41:52.603Z,95.93
2022-11-02T12:42:52.598Z,95.73
2022-11-02T12:43:52.611Z,95.83
2022-11-02T12:44:52.632Z,95.42
2022-11-02T12:45:52.572Z,95.83
2022-11-02T12:46:52.557Z,96.64
2022-11-02T12:47:52.554Z,96.64
2022-11-02T12:48:52.556Z,96.44
2022-11-02T12:49:52.527Z,96.54
2022-11-02T12:50:52.519Z,95.12
2022-11-02T12:51:52.504Z,95.52
2022-11-02T12:52:52.509Z,96.34
2022-11-02T12:53:52.504Z,95.52
2022-11-02T12:54:52.473Z,94.20
2022-11-02T12:55:52.462Z,92.83
2022-11-02T12:56:52.455Z,93.74
2022-11-02T12:57:52.432Z,95.03
2022-11-02T12:58:52.461Z,94.52
2022-11-02T12:59:52.414Z,93.29
2022-11-02T13:00:52.536Z,90.44
2022-11-02T13:01:52.748Z,90.09